Edward Cornwallis — CGJV — position and weather

sailwx.info

Track history (hours):
 
Tides and Currents Weather Stations Pressure Air Temp Water Temp Dewpoint Dewpoint Depression Visibility Wind Speed Wind Dir Waves Ship Positions

Edward Cornwallis

Last reported at 2014-Oct-22 11:22 UTC. Time now 2014-Oct-23 00:03 UTC.
Position N 44°22' W 063°27'.

Length 83 m; draft 6 m.

Type: SAR. MMSI: 316020000.

Date/timePositionNaut miles runAvg speedWind from/ knotsBaromVisibWave heightAir tempDewpointWater temp
2014-Oct-22 11:22N 44°22' W 063°27'1112.9
2014-Oct-22 10:33N 44°32' W 063°31'10 9.7
2014-Oct-22 09:32N 44°41' W 063°37'0 0.0
2014-Oct-22 08:31N 44°41' W 063°37'0 0.0
2014-Oct-22 07:31N 44°41' W 063°37'0 0.0
2014-Oct-22 06:31N 44°41' W 063°37'0 0.0
2014-Oct-22 05:31N 44°41' W 063°37'0 0.0
2014-Oct-22 04:31N 44°41' W 063°37'0 0.0
2014-Oct-22 03:31N 44°41' W 063°37'0 0.0
2014-Oct-22 02:31N 44°41' W 063°37'0 0.0
2014-Oct-22 01:22N 44°41' W 063°37'0 0.0
2014-Oct-22 00:25N 44°41' W 063°37'0 0.0
2014-Oct-21 23:25N 44°41' W 063°37'0 0.0
2014-Oct-21 22:25N 44°41' W 063°37'0 0.0
2014-Oct-21 21:25N 44°41' W 063°37'0 0.0
2014-Oct-21 20:28N 44°41' W 063°37'0 0.0
2014-Oct-21 19:28N 44°41' W 063°37'0 0.0
2014-Oct-21 18:31N 44°41' W 063°37'2 1.6
2014-Oct-21 17:34N 44°40' W 063°35'7 6.5
2014-Oct-21 16:34N 44°34' W 063°33'0 0.0
2014-Oct-21 15:33N 44°34' W 063°33'0 0.0
2014-Oct-21 14:33N 44°34' W 063°33'0 0.0
2014-Oct-21 13:33N 44°34' W 063°33'6 5.5
2014-Oct-21 12:33N 44°39' W 063°34'3 2.8
2014-Oct-21 11:31N 44°41' W 063°37'0 0.0
2014-Oct-21 10:31N 44°41' W 063°37'0 0.0
2014-Oct-21 09:31N 44°41' W 063°37'0 0.0
2014-Oct-21 08:22N 44°41' W 063°37'0 0.0
2014-Oct-21 07:25N 44°41' W 063°37'0 0.0
2014-Oct-21 06:25N 44°41' W 063°37'0 0.0
2014-Oct-21 05:25N 44°41' W 063°37'0 0.0
2014-Oct-21 04:25N 44°41' W 063°37'0 0.0
2014-Oct-21 03:25N 44°41' W 063°37'0 0.0
2014-Oct-21 02:28N 44°41' W 063°37'0 0.0
2014-Oct-21 01:31N 44°41' W 063°37'0 0.0
2014-Oct-21 00:31N 44°41' W 063°37'0 0.0
2014-Oct-20 23:31N 44°41' W 063°37'0 0.0
2014-Oct-20 22:31N 44°41' W 063°37'0 0.0
2014-Oct-20 21:31N 44°41' W 063°37'0 0.0
2014-Oct-20 20:31N 44°41' W 063°37'0 0.0
2014-Oct-20 19:31N 44°41' W 063°37'0 0.0
2014-Oct-20 18:22N 44°41' W 063°37'0 0.0
2014-Oct-20 17:25N 44°41' W 063°37'3 3.5
2014-Oct-20 16:33N 44°39' W 063°34'18 0.4
2014-Oct-18 13:29N 44°21' W 063°28'1212.9
2014-Oct-18 12:33N 44°33' W 063°32'9 9.2
2014-Oct-18 11:33N 44°41' W 063°37'0 0.0
2014-Oct-18 10:33N 44°41' W 063°37'0 0.0
2014-Oct-18 09:33N 44°41' W 063°37'0 0.0
2014-Oct-18 08:33N 44°41' W 063°37'0 0.0
2014-Oct-18 07:24N 44°41' W 063°37'0 0.0
2014-Oct-18 06:27N 44°41' W 063°37'0 0.0
2014-Oct-18 05:24N 44°41' W 063°37'0 0.0
2014-Oct-18 04:27N 44°41' W 063°37'0 0.0
2014-Oct-18 03:30N 44°41' W 063°37'0 0.0
2014-Oct-18 02:30N 44°41' W 063°37'0 0.0
2014-Oct-18 01:27N 44°41' W 063°37'0 0.0
2014-Oct-18 00:33N 44°41' W 063°37'0 0.0
2014-Oct-17 23:18N 44°41' W 063°37'0 0.0
2014-Oct-17 22:33N 44°41' W 063°37'0 0.0
2014-Oct-17 21:33N 44°41' W 063°37'0 0.0
2014-Oct-17 20:21N 44°41' W 063°37'0 0.0
2014-Oct-17 19:24N 44°41' W 063°37'0 0.0
2014-Oct-17 18:21N 44°41' W 063°37'0 0.0
2014-Oct-17 17:24N 44°41' W 063°37'0 0.0
2014-Oct-17 16:27N 44°41' W 063°37'0 0.0
2014-Oct-17 15:27N 44°41' W 063°37'0 0.0
2014-Oct-17 14:27N 44°41' W 063°37'0 0.0
2014-Oct-17 13:30N 44°41' W 063°37'0 0.0
2014-Oct-17 12:27N 44°41' W 063°37'0 0.0
2014-Oct-17 11:33N 44°41' W 063°37'0 0.0
2014-Oct-17 10:33N 44°41' W 063°37'0 0.0
2014-Oct-17 09:33N 44°41' W 063°37'0 0.0
2014-Oct-17 08:33N 44°41' W 063°37'0 0.0
2014-Oct-17 07:30N 44°41' W 063°37'0 0.0
2014-Oct-17 06:33N 44°41' W 063°37'0 0.0
2014-Oct-17 05:21N 44°41' W 063°37'0 0.0
2014-Oct-17 04:33N 44°41' W 063°37'0 0.0
2014-Oct-17 03:24N 44°41' W 063°37'0 0.0
2014-Oct-17 02:27N 44°41' W 063°37'0 0.0
2014-Oct-17 01:27N 44°41' W 063°37'0 0.0
2014-Oct-17 00:27N 44°41' W 063°37'0 0.0
2014-Oct-16 23:30N 44°41' W 063°37'0 0.0
2014-Oct-16 22:15N 44°41' W 063°37'0 0.0
2014-Oct-16 21:33N 44°41' W 063°37'0 0.0
2014-Oct-16 20:30N 44°41' W 063°37'0 0.0
2014-Oct-16 19:33N 44°41' W 063°37'0 0.0
2014-Oct-16 18:33N 44°41' W 063°37'0 0.0
2014-Oct-16 17:21N 44°41' W 063°37'0 0.0
2014-Oct-16 16:33N 44°41' W 063°37'0 0.0
2014-Oct-16 15:21N 44°41' W 063°37'0 0.0
2014-Oct-16 14:33N 44°41' W 063°37'1 2.2
2014-Oct-16 14:00N 44°42' W 063°36'1 2.0 120 / 41020.6 16.015.9
2014-Oct-16 13:21N 44°41' W 063°37'0 0.0
2014-Oct-16 12:27N 44°41' W 063°37'0 0.0
2014-Oct-16 11:27N 44°41' W 063°37'0 0.0
2014-Oct-16 10:27N 44°41' W 063°37'0 0.0
2014-Oct-16 09:30N 44°41' W 063°37'0 0.0
2014-Oct-16 08:30N 44°41' W 063°37'0 0.0
2014-Oct-16 07:33N 44°41' W 063°37'0 0.0
2014-Oct-16 06:33N 44°41' W 063°37'0 0.0
2014-Oct-16 05:33N 44°41' W 063°37'0 0.0
2014-Oct-16 04:33N 44°41' W 063°37'0 0.0
2014-Oct-16 03:21N 44°41' W 063°37'0 0.0
2014-Oct-16 02:33N 44°41' W 063°37'0 0.0
2014-Oct-16 01:33N 44°41' W 063°37'0 0.0
2014-Oct-16 00:24N 44°41' W 063°37'0 0.0
2014-Oct-15 23:24N 44°41' W 063°37'0 0.0
2014-Oct-15 22:27N 44°41' W 063°37'0 0.0
2014-Oct-15 21:27N 44°41' W 063°37'0 0.0
2014-Oct-15 20:30N 44°41' W 063°37'0 0.0
2014-Oct-15 19:30N 44°41' W 063°37'0 0.0
2014-Oct-15 18:27N 44°41' W 063°37'0 0.0
2014-Oct-15 17:33N 44°41' W 063°37'0 0.0
2014-Oct-15 16:33N 44°41' W 063°37'0 0.0
2014-Oct-15 15:18N 44°41' W 063°37'0 0.0
2014-Oct-15 14:33N 44°41' W 063°37'1 1.0
2014-Oct-15 13:33N 44°40' W 063°36'7 7.3
2014-Oct-15 12:33N 44°34' W 063°31'9 9.2
2014-Oct-15 11:32N 44°25' W 063°26'116 4.6
2014-Oct-14 10:00N 44°48' W 066°06'12 1.2 240 / 161023.7 13.612.714.0
2014-Oct-14 00:00N 44°36' W 066°06'   220 / 171026.0 12.9 9.514.3
Track history (hours):
 
Tides and Currents Weather Stations Pressure Air Temp Water Temp Dewpoint Dewpoint Depression Visibility Wind Speed Wind Dir Waves Ship Positions

Edward Cornwallis

Last reported at 2014-Oct-22 11:22 UTC. Time now 2014-Oct-23 00:03 UTC.
Position N 44°22' W 063°27'.

Length 83 m; draft 6 m.

Type: SAR. MMSI: 316020000.

Date/timePositionNaut miles runAvg speedWind from/ knotsBaromVisibWave heightAir tempDewpointWater temp
2014-Oct-22 11:22N 44°22' W 063°27'1112.9
2014-Oct-22 10:33N 44°32' W 063°31'10 9.7
2014-Oct-22 09:32N 44°41' W 063°37'0 0.0
2014-Oct-22 08:31N 44°41' W 063°37'0 0.0
2014-Oct-22 07:31N 44°41' W 063°37'0 0.0
2014-Oct-22 06:31N 44°41' W 063°37'0 0.0
2014-Oct-22 05:31N 44°41' W 063°37'0 0.0
2014-Oct-22 04:31N 44°41' W 063°37'0 0.0
2014-Oct-22 03:31N 44°41' W 063°37'0 0.0
2014-Oct-22 02:31N 44°41' W 063°37'0 0.0
2014-Oct-22 01:22N 44°41' W 063°37'0 0.0
2014-Oct-22 00:25N 44°41' W 063°37'0 0.0
2014-Oct-21 23:25N 44°41' W 063°37'0 0.0
2014-Oct-21 22:25N 44°41' W 063°37'0 0.0
2014-Oct-21 21:25N 44°41' W 063°37'0 0.0
2014-Oct-21 20:28N 44°41' W 063°37'0 0.0
2014-Oct-21 19:28N 44°41' W 063°37'0 0.0
2014-Oct-21 18:31N 44°41' W 063°37'2 1.6
2014-Oct-21 17:34N 44°40' W 063°35'7 6.5
2014-Oct-21 16:34N 44°34' W 063°33'0 0.0
2014-Oct-21 15:33N 44°34' W 063°33'0 0.0
2014-Oct-21 14:33N 44°34' W 063°33'0 0.0
2014-Oct-21 13:33N 44°34' W 063°33'6 5.5
2014-Oct-21 12:33N 44°39' W 063°34'3 2.8
2014-Oct-21 11:31N 44°41' W 063°37'0 0.0
2014-Oct-21 10:31N 44°41' W 063°37'0 0.0
2014-Oct-21 09:31N 44°41' W 063°37'0 0.0
2014-Oct-21 08:22N 44°41' W 063°37'0 0.0
2014-Oct-21 07:25N 44°41' W 063°37'0 0.0
2014-Oct-21 06:25N 44°41' W 063°37'0 0.0
2014-Oct-21 05:25N 44°41' W 063°37'0 0.0
2014-Oct-21 04:25N 44°41' W 063°37'0 0.0
2014-Oct-21 03:25N 44°41' W 063°37'0 0.0
2014-Oct-21 02:28N 44°41' W 063°37'0 0.0
2014-Oct-21 01:31N 44°41' W 063°37'0 0.0
2014-Oct-21 00:31N 44°41' W 063°37'0 0.0
2014-Oct-20 23:31N 44°41' W 063°37'0 0.0
2014-Oct-20 22:31N 44°41' W 063°37'0 0.0
2014-Oct-20 21:31N 44°41' W 063°37'0 0.0
2014-Oct-20 20:31N 44°41' W 063°37'0 0.0
2014-Oct-20 19:31N 44°41' W 063°37'0 0.0
2014-Oct-20 18:22N 44°41' W 063°37'0 0.0
2014-Oct-20 17:25N 44°41' W 063°37'3 3.5
2014-Oct-20 16:33N 44°39' W 063°34'18 0.4
2014-Oct-18 13:29N 44°21' W 063°28'1212.9
2014-Oct-18 12:33N 44°33' W 063°32'9 9.2
2014-Oct-18 11:33N 44°41' W 063°37'0 0.0
2014-Oct-18 10:33N 44°41' W 063°37'0 0.0
2014-Oct-18 09:33N 44°41' W 063°37'0 0.0
2014-Oct-18 08:33N 44°41' W 063°37'0 0.0
2014-Oct-18 07:24N 44°41' W 063°37'0 0.0
2014-Oct-18 06:27N 44°41' W 063°37'0 0.0
2014-Oct-18 05:24N 44°41' W 063°37'0 0.0
2014-Oct-18 04:27N 44°41' W 063°37'0 0.0
2014-Oct-18 03:30N 44°41' W 063°37'0 0.0
2014-Oct-18 02:30N 44°41' W 063°37'0 0.0
2014-Oct-18 01:27N 44°41' W 063°37'0 0.0
2014-Oct-18 00:33N 44°41' W 063°37'0 0.0
2014-Oct-17 23:18N 44°41' W 063°37'0 0.0
2014-Oct-17 22:33N 44°41' W 063°37'0 0.0
2014-Oct-17 21:33N 44°41' W 063°37'0 0.0
2014-Oct-17 20:21N 44°41' W 063°37'0 0.0
2014-Oct-17 19:24N 44°41' W 063°37'0 0.0
2014-Oct-17 18:21N 44°41' W 063°37'0 0.0
2014-Oct-17 17:24N 44°41' W 063°37'0 0.0
2014-Oct-17 16:27N 44°41' W 063°37'0 0.0
2014-Oct-17 15:27N 44°41' W 063°37'0 0.0
2014-Oct-17 14:27N 44°41' W 063°37'0 0.0
2014-Oct-17 13:30N 44°41' W 063°37'0 0.0
2014-Oct-17 12:27N 44°41' W 063°37'0 0.0
2014-Oct-17 11:33N 44°41' W 063°37'0 0.0
2014-Oct-17 10:33N 44°41' W 063°37'0 0.0
2014-Oct-17 09:33N 44°41' W 063°37'0 0.0
2014-Oct-17 08:33N 44°41' W 063°37'0 0.0
2014-Oct-17 07:30N 44°41' W 063°37'0 0.0
2014-Oct-17 06:33N 44°41' W 063°37'0 0.0
2014-Oct-17 05:21N 44°41' W 063°37'0 0.0
2014-Oct-17 04:33N 44°41' W 063°37'0 0.0
2014-Oct-17 03:24N 44°41' W 063°37'0 0.0
2014-Oct-17 02:27N 44°41' W 063°37'0 0.0
2014-Oct-17 01:27N 44°41' W 063°37'0 0.0
2014-Oct-17 00:27N 44°41' W 063°37'0 0.0
2014-Oct-16 23:30N 44°41' W 063°37'0 0.0
2014-Oct-16 22:15N 44°41' W 063°37'0 0.0
2014-Oct-16 21:33N 44°41' W 063°37'0 0.0
2014-Oct-16 20:30N 44°41' W 063°37'0 0.0
2014-Oct-16 19:33N 44°41' W 063°37'0 0.0
2014-Oct-16 18:33N 44°41' W 063°37'0 0.0
2014-Oct-16 17:21N 44°41' W 063°37'0 0.0
2014-Oct-16 16:33N 44°41' W 063°37'0 0.0
2014-Oct-16 15:21N 44°41' W 063°37'0 0.0
2014-Oct-16 14:33N 44°41' W 063°37'1 2.2
2014-Oct-16 14:00N 44°42' W 063°36'1 2.0 120 / 41020.6 16.015.9
2014-Oct-16 13:21N 44°41' W 063°37'0 0.0
2014-Oct-16 12:27N 44°41' W 063°37'0 0.0
2014-Oct-16 11:27N 44°41' W 063°37'0 0.0
2014-Oct-16 10:27N 44°41' W 063°37'0 0.0
2014-Oct-16 09:30N 44°41' W 063°37'0 0.0
2014-Oct-16 08:30N 44°41' W 063°37'0 0.0
2014-Oct-16 07:33N 44°41' W 063°37'0 0.0
2014-Oct-16 06:33N 44°41' W 063°37'0 0.0
2014-Oct-16 05:33N 44°41' W 063°37'0 0.0
2014-Oct-16 04:33N 44°41' W 063°37'0 0.0
2014-Oct-16 03:21N 44°41' W 063°37'0 0.0
2014-Oct-16 02:33N 44°41' W 063°37'0 0.0
2014-Oct-16 01:33N 44°41' W 063°37'0 0.0
2014-Oct-16 00:24N 44°41' W 063°37'0 0.0
2014-Oct-15 23:24N 44°41' W 063°37'0 0.0
2014-Oct-15 22:27N 44°41' W 063°37'0 0.0
2014-Oct-15 21:27N 44°41' W 063°37'0 0.0
2014-Oct-15 20:30N 44°41' W 063°37'0 0.0
2014-Oct-15 19:30N 44°41' W 063°37'0 0.0
2014-Oct-15 18:27N 44°41' W 063°37'0 0.0
2014-Oct-15 17:33N 44°41' W 063°37'0 0.0
2014-Oct-15 16:33N 44°41' W 063°37'0 0.0
2014-Oct-15 15:18N 44°41' W 063°37'0 0.0
2014-Oct-15 14:33N 44°41' W 063°37'1 1.0
2014-Oct-15 13:33N 44°40' W 063°36'7 7.3
2014-Oct-15 12:33N 44°34' W 063°31'9 9.2
2014-Oct-15 11:32N 44°25' W 063°26'116 4.6
2014-Oct-14 10:00N 44°48' W 066°06'12 1.2 240 / 161023.7 13.612.714.0
2014-Oct-14 00:00N 44°36' W 066°06'   220 / 171026.0 12.9 9.514.3

Dump ship's entire track history